KCSV

Crossville Memorial-Whitson Field Airport

Crossville, Tennessee, USA
METAR KCSV 232153Z AUTO 16005KT 10SM FEW040 SCT080 BKN095 22/13 A3027 RMK AO2 SLP234 T02220128
Observed Flight Rules
Feb-23 @ 21:53 UTC (38 minutes ago) Visual Flight Rules
Wind Visibility Clouds
160° at 5 knots 10 miles
  • Few at 4,000' AGL
  • Scattered at 8,000' AGL
  • Broken at 9,500' AGL
Temperatures Readings
Current 22°C / 72°F
Dewpoint 13°C / 55°F
Humidity 57%
Altimeter 30.27" Hg
Pressure 1023.4 hPa
Elevation 570
METAR KCSV 232153Z AUTO 16005KT 10SM FEW040 SCT080 BKN095 22/13 A3027 RMK AO2 SLP234 T02220128
Observed Flight Rules
Feb-23 @ 21:53 UTC
(38 minutes ago)
VFR
Wind Visibility
160° at 5 knots 10 miles
Clouds
  • Few at 4,000' AGL
  • Scattered at 8,000' AGL
  • Broken at 9,500' AGL
Temperature Dewpoint
22°C / 72°F 13°C / 55°F
Humidity Altimeter Pressure
57% 30.27" Hg 1023.4 hPa